createdAt,value
2022-10-01T00:02:18.549Z,19.60
2022-10-01T00:07:20.840Z,17.90
2022-10-01T00:12:23.387Z,19.60
2022-10-01T00:17:29.984Z,19.80
2022-10-01T00:22:37.239Z,21.10
2022-10-01T00:27:50.669Z,17.40
2022-10-01T00:32:55.075Z,19.20
2022-10-01T00:38:01.728Z,20.50
2022-10-01T00:43:22.601Z,20.60
2022-10-01T00:48:29.704Z,21.80
2022-10-01T00:53:32.996Z,19.20
2022-10-01T00:58:36.225Z,20.50
2022-10-01T01:03:52.613Z,20.80
2022-10-01T01:08:56.271Z,19.70
2022-10-01T01:14:43.831Z,19.90
2022-10-01T01:20:21.155Z,20.40
2022-10-01T01:25:35.985Z,17.60
2022-10-01T01:30:42.771Z,19.10
2022-10-01T01:36:00.240Z,17.20
2022-10-01T01:41:12.311Z,18.60
2022-10-01T01:46:33.858Z,20.60
2022-10-01T01:51:49.247Z,21.90
2022-10-01T01:57:18.251Z,21.90
2022-10-01T02:02:28.091Z,22.70
2022-10-01T02:07:43.791Z,20.20
2022-10-01T02:13:38.822Z,20.40
2022-10-01T02:18:57.735Z,22.40
2022-10-01T02:24:31.320Z,21.40
2022-10-01T02:29:40.975Z,21.40
2022-10-01T02:34:46.232Z,21.90
2022-10-01T02:39:53.033Z,23.00
2022-10-01T02:45:02.657Z,24.30
2022-10-01T02:50:57.830Z,25.30
2022-10-01T02:56:05.242Z,23.10
2022-10-01T03:01:15.437Z,24.50
2022-10-01T03:06:23.918Z,22.90
2022-10-01T03:11:30.432Z,23.10
2022-10-01T03:16:33.644Z,23.30
2022-10-01T03:22:08.603Z,22.60
2022-10-01T03:27:14.371Z,25.60
2022-10-01T03:33:03.647Z,21.90
2022-10-01T03:38:29.412Z,23.80
2022-10-01T03:43:59.658Z,24.40
2022-10-01T03:49:03.780Z,21.90
2022-10-01T03:54:22.687Z,22.30
2022-10-01T03:59:28.749Z,22.90
2022-10-01T04:05:20.133Z,22.00
2022-10-01T04:10:22.587Z,24.10
2022-10-01T04:15:28.405Z,22.60
2022-10-01T04:20:56.819Z,22.10
2022-10-01T04:26:11.887Z,21.60
2022-10-01T04:31:35.558Z,21.60
2022-10-01T04:36:38.446Z,20.30
2022-10-01T04:41:49.124Z,22.30
2022-10-01T04:46:54.230Z,22.50
2022-10-01T04:52:01.034Z,20.00
2022-10-01T04:57:04.672Z,23.10
2022-10-01T05:02:10.613Z,23.70
2022-10-01T05:07:30.289Z,24.40
2022-10-01T05:13:11.067Z,25.90
2022-10-01T05:18:14.890Z,24.90
2022-10-01T05:23:25.155Z,25.90
2022-10-01T05:28:50.332Z,27.10
2022-10-01T05:33:56.924Z,26.50
2022-10-01T05:39:15.267Z,25.30
2022-10-01T05:45:01.308Z,27.10
2022-10-01T05:50:13.110Z,26.80
2022-10-01T05:55:27.766Z,25.00
2022-10-01T06:00:35.972Z,23.90
2022-10-01T06:05:44.992Z,22.70
2022-10-01T06:10:51.846Z,22.20
2022-10-01T06:15:57.013Z,24.10
2022-10-01T06:21:01.755Z,33.90
2022-10-01T06:26:19.764Z,24.10
2022-10-01T06:31:39.302Z,18.50
2022-10-01T06:37:07.143Z,22.90
2022-10-01T06:42:11.163Z,21.40
2022-10-01T06:47:13.524Z,22.30
2022-10-01T06:52:53.197Z,19.60
2022-10-01T06:58:01.415Z,20.80
2022-10-01T07:03:14.090Z,19.70
2022-10-01T07:08:42.020Z,21.60
2022-10-01T07:13:44.512Z,22.30
2022-10-01T07:18:47.623Z,21.80
2022-10-01T07:23:54.497Z,18.60
2022-10-01T07:28:59.555Z,21.20
2022-10-01T07:34:04.223Z,20.20
2022-10-01T07:39:25.297Z,20.00
2022-10-01T07:45:14.932Z,21.00
2022-10-01T07:50:20.734Z,19.40
2022-10-01T07:55:26.987Z,20.80
2022-10-01T08:00:33.029Z,23.10
2022-10-01T08:05:41.492Z,19.60
2022-10-01T08:10:44.637Z,20.90
2022-10-01T08:15:59.393Z,20.80
2022-10-01T08:21:23.840Z,19.10
2022-10-01T08:26:54.457Z,19.70
2022-10-01T08:32:21.970Z,19.50
2022-10-01T08:37:29.396Z,22.40
2022-10-01T08:42:44.972Z,17.90
2022-10-01T08:48:01.584Z,19.40
2022-10-01T08:53:13.949Z,21.00
2022-10-01T08:58:25.865Z,20.70
2022-10-01T09:03:33.614Z,18.70
2022-10-01T09:08:54.192Z,17.50
2022-10-01T09:14:32.506Z,16.80
2022-10-01T09:20:08.442Z,16.90
2022-10-01T09:26:00.156Z,15.80
2022-10-01T09:31:52.051Z,14.30
2022-10-01T09:37:06.951Z,15.40
2022-10-01T09:42:39.887Z,14.80
2022-10-01T09:47:48.740Z,13.40
2022-10-01T09:53:17.586Z,15.10
2022-10-01T09:58:23.340Z,13.30
2022-10-01T10:03:38.017Z,14.50
2022-10-01T10:09:18.329Z,13.60
2022-10-01T10:14:41.338Z,13.80
2022-10-01T10:20:03.195Z,13.70
2022-10-01T10:25:32.576Z,12.10
2022-10-01T10:30:37.174Z,12.70
2022-10-01T10:35:43.254Z,11.60
2022-10-01T10:40:46.797Z,9.40
2022-10-01T10:45:56.856Z,10.10
2022-10-01T10:51:02.574Z,9.20
2022-10-01T10:56:06.544Z,8.80
2022-10-01T11:01:33.116Z,8.10
2022-10-01T11:06:55.024Z,10.20
2022-10-01T11:12:27.793Z,9.40
2022-10-01T11:18:10.652Z,8.00
2022-10-01T11:23:37.703Z,6.10
2022-10-01T11:29:09.036Z,6.20
2022-10-01T11:34:48.824Z,6.70
2022-10-01T11:40:03.417Z,5.90
2022-10-01T11:45:32.127Z,6.40
2022-10-01T11:50:39.816Z,6.70
2022-10-01T11:56:22.974Z,5.20
2022-10-01T12:02:01.307Z,4.80
2022-10-01T12:07:13.472Z,4.50
2022-10-01T12:12:42.797Z,4.30
2022-10-01T12:18:19.425Z,4.30
2022-10-01T12:23:50.498Z,3.90
2022-10-01T12:29:24.713Z,3.60
2022-10-01T12:34:53.859Z,4.10
2022-10-01T12:40:18.047Z,5.40
2022-10-01T12:45:43.919Z,4.20
2022-10-01T12:51:16.494Z,3.60
2022-10-01T12:57:11.433Z,4.10
2022-10-01T13:02:45.982Z,4.20
2022-10-01T13:08:38.286Z,3.90
2022-10-01T13:13:43.008Z,4.20
2022-10-01T13:19:34.644Z,4.50
2022-10-01T13:25:13.278Z,4.20
2022-10-01T13:31:11.299Z,4.20
2022-10-01T13:36:49.559Z,2.80
2022-10-01T13:41:58.560Z,2.80
2022-10-01T13:47:07.055Z,4.20
2022-10-01T13:52:22.016Z,3.60
2022-10-01T13:58:04.940Z,2.80
2022-10-01T14:03:23.635Z,3.40
2022-10-01T14:08:31.244Z,2.60
2022-10-01T14:14:01.706Z,3.20
2022-10-01T14:19:04.744Z,3.50
2022-10-01T14:24:28.622Z,4.50
2022-10-01T14:30:11.799Z,3.70
2022-10-01T14:35:32.979Z,3.70
2022-10-01T14:40:41.279Z,4.10
2022-10-01T14:46:14.032Z,4.70
2022-10-01T14:51:51.587Z,4.00
2022-10-01T14:56:53.899Z,4.60
2022-10-01T15:02:01.904Z,5.00
2022-10-01T15:07:12.803Z,5.50
2022-10-01T15:12:40.423Z,4.70
2022-10-01T15:17:43.222Z,4.40
2022-10-01T15:23:01.091Z,5.50
2022-10-01T15:28:14.580Z,4.80
2022-10-01T15:33:50.221Z,3.90
2022-10-01T15:39:13.997Z,5.40
2022-10-01T15:44:38.570Z,5.10
2022-10-01T15:49:40.909Z,5.50
2022-10-01T15:55:05.268Z,6.90
2022-10-01T16:00:22.387Z,6.00
2022-10-01T16:05:36.260Z,5.10
2022-10-01T16:10:45.766Z,5.20
2022-10-01T16:16:20.766Z,4.80
2022-10-01T16:22:18.864Z,6.50
2022-10-01T16:27:31.799Z,6.30
2022-10-01T16:32:52.134Z,6.10
2022-10-01T16:37:58.047Z,5.90
2022-10-01T16:43:11.083Z,7.80
2022-10-01T16:48:19.719Z,6.30
2022-10-01T16:53:29.643Z,6.80
2022-10-01T16:58:32.712Z,8.50
2022-10-01T17:03:35.854Z,10.10
2022-10-01T17:08:38.291Z,9.50
2022-10-01T17:13:43.682Z,9.20
2022-10-01T17:18:48.758Z,8.40
2022-10-01T17:24:02.317Z,8.40
2022-10-01T17:29:06.907Z,7.80
2022-10-01T17:34:09.012Z,7.60
2022-10-01T17:39:11.208Z,7.00
2022-10-01T17:44:36.983Z,4.00
2022-10-01T17:49:39.686Z,3.20
2022-10-01T17:54:41.788Z,3.60
2022-10-01T17:59:44.047Z,3.00
2022-10-01T18:04:47.090Z,3.10
2022-10-01T18:09:55.775Z,2.10
2022-10-01T18:14:58.146Z,2.30
2022-10-01T18:20:00.398Z,1.90
2022-10-01T18:25:03.647Z,1.90
2022-10-01T18:30:10.380Z,1.60
2022-10-01T18:35:41.425Z,2.00
2022-10-01T18:40:56.535Z,2.70
2022-10-01T18:46:43.187Z,2.60
2022-10-01T18:52:25.852Z,2.70
2022-10-01T18:58:01.561Z,2.60
2022-10-01T19:03:35.851Z,2.10
2022-10-01T19:09:09.947Z,2.20
2022-10-01T19:14:39.100Z,2.60
2022-10-01T19:20:53.673Z,2.10
2022-10-01T19:26:10.069Z,2.90
2022-10-01T19:31:44.354Z,2.20
2022-10-01T19:37:12.558Z,1.60
2022-10-01T19:42:29.711Z,1.60
2022-10-01T19:48:06.503Z,1.30
2022-10-01T19:53:24.055Z,1.40
2022-10-01T19:58:26.927Z,2.40
2022-10-01T20:03:44.660Z,3.10
2022-10-01T20:09:20.274Z,2.60
2022-10-01T20:15:07.261Z,2.50
2022-10-01T20:20:16.299Z,3.30
2022-10-01T20:25:33.955Z,2.80
2022-10-01T20:31:05.767Z,2.80
2022-10-01T20:36:17.552Z,2.70
2022-10-01T20:41:30.275Z,3.10
2022-10-01T20:46:43.494Z,2.40
2022-10-01T20:51:58.427Z,2.70
2022-10-01T20:57:14.095Z,2.40
2022-10-01T21:03:01.804Z,2.70
2022-10-01T21:09:02.081Z,2.90
2022-10-01T21:14:20.819Z,2.80
2022-10-01T21:20:02.840Z,2.40
2022-10-01T21:26:19.168Z,2.40
2022-10-01T21:31:33.434Z,2.20
2022-10-01T21:37:03.215Z,2.00
2022-10-01T21:42:16.710Z,2.00
2022-10-01T21:48:04.112Z,2.10
2022-10-01T21:53:57.255Z,2.10
2022-10-01T21:59:11.900Z,2.20
2022-10-01T22:04:38.718Z,1.90
2022-10-01T22:09:53.525Z,2.10
2022-10-01T22:14:59.274Z,2.20
2022-10-01T22:20:04.871Z,1.90
2022-10-01T22:25:28.504Z,2.00
2022-10-01T22:30:34.597Z,1.80
2022-10-01T22:36:15.772Z,1.70
2022-10-01T22:41:47.123Z,1.60
2022-10-01T22:47:50.386Z,1.70
2022-10-01T22:53:50.364Z,2.00
2022-10-01T22:59:12.939Z,1.70
2022-10-01T23:05:08.666Z,1.80
2022-10-01T23:10:47.488Z,2.00
2022-10-01T23:16:14.580Z,2.10
2022-10-01T23:21:42.820Z,1.70
2022-10-01T23:27:19.811Z,2.10
2022-10-01T23:32:51.115Z,1.80
2022-10-01T23:39:01.809Z,1.70
2022-10-01T23:44:52.722Z,1.70
2022-10-01T23:50:27.901Z,1.70
2022-10-01T23:56:01.019Z,2.00
